createdAt,value
2019-06-08T00:02:16.544Z,17.25
2019-06-08T00:05:21.050Z,17.07
2019-06-08T00:08:25.551Z,17.10
2019-06-08T00:11:28.750Z,17.02
2019-06-08T00:14:32.603Z,16.95
2019-06-08T00:17:39.220Z,16.57
2019-06-08T00:20:42.533Z,16.93
2019-06-08T00:23:45.663Z,17.67
2019-06-08T00:26:49.044Z,18.65
2019-06-08T00:29:52.324Z,16.87
2019-06-08T00:32:55.468Z,17.40
2019-06-08T00:35:58.860Z,18.30
2019-06-08T00:39:02.248Z,19.32
2019-06-08T00:42:06.945Z,18.02
2019-06-08T00:45:11.236Z,18.20
2019-06-08T00:48:14.591Z,18.82
2019-06-08T00:51:18.791Z,18.67
2019-06-08T00:54:23.428Z,18.77
2019-06-08T00:57:26.670Z,18.73
2019-06-08T01:00:30.804Z,18.55
2019-06-08T01:03:34.125Z,18.55
2019-06-08T01:06:37.269Z,19.05
2019-06-08T01:09:40.649Z,19.90
2019-06-08T01:12:43.813Z,21.33
2019-06-08T01:15:47.017Z,19.98
2019-06-08T01:18:50.304Z,19.77
2019-06-08T01:21:53.605Z,19.17
2019-06-08T01:24:56.809Z,19.85
2019-06-08T01:28:00.107Z,20.10
2019-06-08T01:31:03.401Z,19.42
2019-06-08T01:34:06.628Z,18.85
2019-06-08T01:37:09.901Z,19.25
2019-06-08T01:40:15.420Z,18.50
2019-06-08T01:43:18.946Z,18.73
2019-06-08T01:46:22.136Z,18.48
2019-06-08T01:49:26.530Z,19.95
2019-06-08T01:52:30.896Z,20.35
2019-06-08T01:55:34.260Z,19.02
2019-06-08T01:58:37.582Z,19.02
2019-06-08T02:01:40.890Z,18.05
2019-06-08T02:04:44.120Z,18.15
2019-06-08T02:07:47.373Z,18.77
2019-06-08T02:10:50.567Z,17.60
2019-06-08T02:13:53.879Z,18.07
2019-06-08T02:16:57.088Z,17.92
2019-06-08T02:20:00.188Z,18.00
2019-06-08T02:23:03.494Z,18.82
2019-06-08T02:26:06.681Z,19.05
2019-06-08T02:29:10.023Z,18.23
2019-06-08T02:32:13.270Z,16.77
2019-06-08T02:35:16.783Z,18.98
2019-06-08T02:38:20.043Z,18.30
2019-06-08T02:41:23.374Z,15.90
2019-06-08T02:44:28.306Z,10.70
2019-06-08T02:47:33.037Z,7.65
2019-06-08T02:51:09.382Z,7.20
2019-06-08T02:54:12.704Z,4.85
2019-06-08T02:57:16.934Z,4.67
2019-06-08T03:00:20.301Z,3.85
2019-06-08T03:03:24.621Z,3.62
2019-06-08T03:06:30.378Z,3.02
2019-06-08T03:09:38.665Z,2.60
2019-06-08T03:12:43.854Z,2.12
2019-06-08T03:15:48.145Z,2.30
2019-06-08T03:18:51.343Z,1.50
2019-06-08T03:21:54.465Z,1.70
2019-06-08T03:24:57.563Z,1.52
2019-06-08T03:28:00.763Z,1.17
2019-06-08T03:31:04.034Z,1.42
2019-06-08T03:34:10.121Z,1.40
2019-06-08T03:37:13.335Z,1.50
2019-06-08T03:40:18.328Z,1.30
2019-06-08T03:43:22.591Z,1.50
2019-06-08T03:46:25.880Z,1.70
2019-06-08T03:49:41.184Z,1.50
2019-06-08T03:52:35.374Z,1.77
2019-06-08T03:55:40.464Z,1.45
2019-06-08T03:58:46.042Z,1.50
2019-06-08T04:01:50.016Z,1.55
2019-06-08T04:04:53.093Z,1.57
2019-06-08T04:07:56.647Z,1.75
2019-06-08T04:10:59.898Z,2.30
2019-06-08T04:14:03.202Z,2.00
2019-06-08T04:17:06.315Z,1.65
2019-06-08T04:20:12.134Z,2.00
2019-06-08T04:23:15.680Z,1.62
2019-06-08T04:27:10.897Z,1.80
2019-06-08T04:30:15.591Z,1.50
2019-06-08T04:33:18.840Z,1.80
2019-06-08T04:36:23.282Z,2.02
2019-06-08T04:39:27.063Z,2.05
2019-06-08T04:42:30.404Z,2.00
2019-06-08T04:45:33.718Z,2.30
2019-06-08T04:48:38.508Z,2.08
2019-06-08T04:51:42.473Z,2.20
2019-06-08T04:54:47.669Z,2.15
2019-06-08T04:57:51.046Z,2.25
2019-06-08T05:00:55.624Z,2.22
2019-06-08T05:03:59.058Z,2.37
2019-06-08T05:07:02.230Z,2.40
2019-06-08T05:10:05.938Z,2.20
2019-06-08T05:13:11.194Z,2.45
2019-06-08T05:16:14.378Z,2.20
2019-06-08T05:19:17.465Z,1.90
2019-06-08T05:22:21.908Z,1.98
2019-06-08T05:25:25.757Z,2.00
2019-06-08T05:28:29.044Z,2.22
2019-06-08T05:31:33.813Z,1.82
2019-06-08T05:34:36.928Z,1.70
2019-06-08T05:37:41.411Z,1.65
2019-06-08T05:40:45.595Z,1.52
2019-06-08T05:43:49.936Z,1.32
2019-06-08T05:46:55.846Z,1.20
2019-06-08T05:49:59.045Z,1.62
2019-06-08T05:53:04.108Z,1.40
2019-06-08T05:56:07.077Z,1.52
2019-06-08T05:59:11.501Z,1.30
2019-06-08T06:02:14.828Z,1.60
2019-06-08T06:06:01.920Z,1.67
2019-06-08T06:09:06.954Z,1.72
2019-06-08T06:12:11.997Z,1.40
2019-06-08T06:15:16.012Z,1.07
2019-06-08T06:18:19.132Z,1.12
2019-06-08T06:21:23.968Z,1.17
2019-06-08T06:24:27.136Z,1.10
2019-06-08T06:27:30.324Z,1.37
2019-06-08T06:30:33.530Z,1.12
2019-06-08T06:33:38.393Z,1.05
2019-06-08T06:36:41.768Z,1.20
2019-06-08T06:39:46.187Z,1.05
2019-06-08T06:42:50.063Z,1.10
2019-06-08T06:45:54.493Z,1.20
2019-06-08T06:48:57.609Z,1.02
2019-06-08T06:52:00.707Z,1.05
2019-06-08T06:55:04.446Z,0.80
2019-06-08T06:58:07.708Z,0.98
2019-06-08T07:01:10.950Z,0.98
2019-06-08T07:04:14.228Z,1.32
2019-06-08T07:07:17.398Z,1.07
2019-06-08T07:10:20.621Z,1.32
2019-06-08T07:13:24.285Z,0.85
2019-06-08T07:16:27.624Z,0.88
2019-06-08T07:19:30.821Z,1.00
2019-06-08T07:22:33.981Z,1.00
2019-06-08T07:25:37.417Z,0.80
2019-06-08T07:28:40.782Z,0.80
2019-06-08T07:31:43.934Z,0.78
2019-06-08T07:34:48.624Z,0.70
2019-06-08T07:37:53.599Z,1.27
2019-06-08T07:40:59.665Z,0.88
2019-06-08T07:44:01.976Z,1.25
2019-06-08T07:47:05.214Z,0.90
2019-06-08T07:50:08.407Z,0.95
2019-06-08T07:53:11.565Z,0.98
2019-06-08T07:56:14.692Z,0.60
2019-06-08T07:59:17.753Z,0.90
2019-06-08T08:02:21.199Z,0.60
2019-06-08T08:05:24.484Z,0.70
2019-06-08T08:08:27.651Z,0.90
2019-06-08T08:11:31.077Z,0.93
2019-06-08T08:14:34.364Z,0.80
2019-06-08T08:17:37.471Z,1.00
2019-06-08T08:20:40.557Z,0.55
2019-06-08T08:23:43.924Z,0.70
2019-06-08T08:26:49.437Z,0.70
2019-06-08T08:29:53.213Z,0.90
2019-06-08T08:33:01.054Z,0.90
2019-06-08T08:36:02.644Z,0.65
2019-06-08T08:39:08.390Z,1.00
2019-06-08T08:42:12.037Z,0.60
2019-06-08T08:45:15.305Z,0.78
2019-06-08T08:48:25.421Z,0.57
2019-06-08T08:51:23.474Z,0.90
2019-06-08T08:54:27.559Z,0.78
2019-06-08T08:57:31.700Z,0.70
2019-06-08T09:00:34.765Z,0.70
2019-06-08T09:03:39.529Z,0.80
2019-06-08T09:06:43.101Z,1.35
2019-06-08T09:09:48.289Z,0.50
2019-06-08T09:12:52.299Z,0.80
2019-06-08T09:15:58.501Z,0.75
2019-06-08T09:19:04.266Z,0.50
2019-06-08T09:22:08.625Z,0.62
2019-06-08T09:25:13.624Z,0.78
2019-06-08T09:28:18.622Z,0.57
2019-06-08T09:31:22.098Z,1.10
2019-06-08T09:34:25.337Z,0.60
2019-06-08T09:37:29.521Z,0.70
2019-06-08T09:40:32.779Z,0.70
2019-06-08T09:43:38.576Z,0.85
2019-06-08T09:46:41.017Z,0.85
2019-06-08T09:49:44.212Z,0.90
2019-06-08T09:52:47.869Z,1.00
2019-06-08T09:55:51.114Z,1.20
2019-06-08T09:58:55.955Z,0.80
2019-06-08T10:02:05.033Z,0.80
2019-06-08T10:05:06.278Z,0.88
2019-06-08T10:08:10.582Z,0.98
2019-06-08T10:11:13.881Z,0.80
2019-06-08T10:14:18.968Z,0.95
2019-06-08T10:17:22.415Z,0.90
2019-06-08T10:20:25.588Z,0.70
2019-06-08T10:23:34.152Z,0.85
2019-06-08T10:26:33.825Z,0.90
2019-06-08T10:29:38.314Z,0.80
2019-06-08T10:32:41.751Z,0.60
2019-06-08T10:35:45.065Z,0.88
2019-06-08T10:38:48.427Z,0.90
2019-06-08T10:41:51.817Z,0.60
2019-06-08T10:44:55.082Z,1.05
2019-06-08T10:48:00.818Z,0.90
2019-06-08T10:51:05.563Z,0.85
2019-06-08T10:54:11.171Z,0.80
2019-06-08T10:57:14.243Z,0.60
2019-06-08T11:00:24.191Z,1.05
2019-06-08T11:03:30.442Z,0.98
2019-06-08T11:06:32.809Z,1.00
2019-06-08T11:09:36.116Z,1.10
2019-06-08T11:12:39.373Z,0.80
2019-06-08T11:15:42.522Z,1.75
2019-06-08T11:18:45.749Z,0.98
2019-06-08T11:21:48.873Z,1.02
2019-06-08T11:24:52.172Z,0.82
2019-06-08T11:27:55.353Z,0.95
2019-06-08T11:30:59.591Z,0.90
2019-06-08T11:34:04.004Z,0.90
2019-06-08T11:37:11.451Z,0.80
2019-06-08T11:40:12.984Z,1.30
2019-06-08T11:43:18.317Z,0.80
2019-06-08T11:46:22.204Z,1.10
2019-06-08T11:49:27.740Z,1.12
2019-06-08T11:52:30.629Z,1.00
2019-06-08T11:55:33.753Z,0.88
2019-06-08T11:58:38.665Z,0.98
2019-06-08T12:01:43.180Z,0.80
2019-06-08T12:04:47.342Z,1.10
2019-06-08T12:07:50.389Z,0.93
2019-06-08T12:10:53.621Z,0.80
2019-06-08T12:13:58.479Z,0.80
2019-06-08T12:17:03.053Z,1.05
2019-06-08T12:20:08.557Z,1.20
2019-06-08T12:23:12.075Z,0.98
2019-06-08T12:26:15.329Z,1.70
2019-06-08T12:29:20.322Z,0.80
2019-06-08T12:32:23.330Z,1.27
2019-06-08T12:35:28.370Z,1.10
2019-06-08T12:38:34.503Z,0.70
2019-06-08T12:41:37.742Z,1.10
2019-06-08T12:44:43.664Z,1.10
2019-06-08T12:47:47.893Z,1.20
2019-06-08T12:50:51.248Z,1.70
2019-06-08T12:53:59.710Z,1.40
2019-06-08T12:57:00.841Z,1.10
2019-06-08T13:00:07.787Z,1.20
2019-06-08T13:03:11.709Z,0.88
2019-06-08T13:06:18.334Z,1.10
2019-06-08T13:09:21.429Z,1.30
2019-06-08T13:12:24.524Z,1.20
2019-06-08T13:15:27.748Z,1.20
2019-06-08T13:18:34.005Z,1.20
2019-06-08T13:21:38.448Z,1.10
2019-06-08T13:24:41.708Z,1.15
2019-06-08T13:27:44.801Z,1.10
2019-06-08T13:30:49.185Z,1.07
2019-06-08T13:33:52.425Z,1.32
2019-06-08T13:36:55.737Z,1.00
2019-06-08T13:39:59.331Z,1.60
2019-06-08T13:43:02.625Z,1.22
2019-06-08T13:46:08.056Z,1.42
2019-06-08T13:49:12.251Z,1.07
2019-06-08T13:52:16.243Z,1.35
2019-06-08T13:55:36.298Z,1.20
2019-06-08T13:58:32.172Z,1.10
2019-06-08T14:01:30.857Z,0.88
2019-06-08T14:04:34.409Z,1.50
2019-06-08T14:07:38.098Z,1.30
2019-06-08T14:10:41.716Z,1.27
2019-06-08T14:13:44.867Z,1.20
2019-06-08T14:16:50.385Z,1.30
2019-06-08T14:19:53.100Z,1.42
2019-06-08T14:22:58.767Z,1.35
2019-06-08T14:26:02.477Z,1.00
2019-06-08T14:29:05.632Z,1.60
2019-06-08T14:32:08.995Z,1.00
2019-06-08T14:35:12.505Z,1.00
2019-06-08T14:38:19.305Z,1.40
2019-06-08T14:41:21.051Z,1.00
2019-06-08T14:44:25.722Z,1.22
2019-06-08T14:47:30.386Z,1.40
2019-06-08T14:50:33.499Z,1.27
2019-06-08T14:53:38.652Z,1.00
2019-06-08T14:56:41.782Z,1.40
2019-06-08T14:59:44.856Z,1.10
2019-06-08T15:02:49.914Z,1.30
2019-06-08T15:05:52.953Z,1.20
2019-06-08T15:08:58.155Z,1.12
2019-06-08T15:12:01.085Z,1.10
2019-06-08T15:15:05.204Z,1.25
2019-06-08T15:18:11.065Z,1.42
2019-06-08T15:21:13.445Z,1.00
2019-06-08T15:24:18.569Z,0.93
2019-06-08T15:27:24.459Z,1.20
2019-06-08T15:30:29.467Z,1.12
2019-06-08T15:33:33.655Z,1.52
2019-06-08T15:36:38.192Z,1.10
2019-06-08T15:39:42.672Z,1.25
2019-06-08T15:42:47.833Z,1.00
2019-06-08T15:45:51.487Z,1.05
2019-06-08T15:48:54.922Z,1.22
2019-06-08T15:51:58.084Z,1.10
2019-06-08T15:55:01.648Z,1.20
2019-06-08T15:58:04.989Z,0.98
2019-06-08T16:01:08.188Z,1.10
2019-06-08T16:04:11.409Z,1.07
2019-06-08T16:07:14.804Z,1.25
2019-06-08T16:10:18.024Z,1.07
2019-06-08T16:13:34.728Z,1.05
2019-06-08T16:16:37.983Z,0.90
2019-06-08T16:19:41.121Z,0.90
2019-06-08T16:22:44.397Z,0.95
2019-06-08T16:25:47.594Z,1.02
2019-06-08T16:28:50.768Z,1.10
2019-06-08T16:31:55.025Z,1.10
2019-06-08T16:34:58.329Z,1.02
2019-06-08T16:38:01.580Z,0.95
2019-06-08T16:41:04.881Z,1.50
2019-06-08T16:44:08.105Z,0.90
2019-06-08T16:47:11.317Z,1.17
2019-06-08T16:50:24.146Z,1.00
2019-06-08T16:53:19.600Z,0.98
2019-06-08T16:56:22.695Z,1.17
2019-06-08T16:59:25.921Z,1.10
2019-06-08T17:02:30.724Z,1.00
2019-06-08T17:05:35.192Z,1.20
2019-06-08T17:08:41.954Z,1.22
2019-06-08T17:11:43.691Z,1.07
2019-06-08T17:14:46.817Z,1.00
2019-06-08T17:17:49.869Z,1.37
2019-06-08T17:20:52.969Z,0.93
2019-06-08T17:23:57.849Z,0.95
2019-06-08T17:27:01.205Z,1.00
2019-06-08T17:30:08.556Z,0.75
2019-06-08T17:33:10.146Z,1.22
2019-06-08T17:36:13.265Z,1.00
2019-06-08T17:39:16.334Z,1.12
2019-06-08T17:42:19.533Z,1.15
2019-06-08T17:45:22.738Z,1.05
2019-06-08T17:48:26.948Z,1.00
2019-06-08T17:51:30.036Z,1.10
2019-06-08T17:54:34.988Z,0.98
2019-06-08T17:57:49.452Z,0.90
2019-06-08T18:00:44.725Z,1.20
2019-06-08T18:03:48.301Z,1.10
2019-06-08T18:06:51.645Z,1.00
2019-06-08T18:09:57.661Z,1.20
2019-06-08T18:13:00.914Z,1.20
2019-06-08T18:16:04.200Z,1.25
2019-06-08T18:19:20.300Z,1.30
2019-06-08T18:22:23.528Z,1.15
2019-06-08T18:25:27.897Z,1.22
2019-06-08T18:28:31.565Z,1.27
2019-06-08T18:31:34.860Z,1.15
2019-06-08T18:34:39.976Z,1.40
2019-06-08T18:37:44.132Z,1.30
2019-06-08T18:40:48.479Z,1.20
2019-06-08T18:43:52.743Z,1.72
2019-06-08T18:46:57.679Z,1.37
2019-06-08T18:50:02.956Z,1.20
2019-06-08T18:53:07.133Z,1.05
2019-06-08T18:56:10.413Z,1.50
2019-06-08T18:59:13.608Z,1.40
2019-06-08T19:02:18.042Z,1.25
2019-06-08T19:05:21.544Z,1.37
2019-06-08T19:08:25.073Z,1.20
2019-06-08T19:11:28.708Z,1.20
2019-06-08T19:14:32.148Z,1.12
2019-06-08T19:17:39.806Z,1.20
2019-06-08T19:20:44.866Z,1.25
2019-06-08T19:23:49.231Z,1.10
2019-06-08T19:26:51.784Z,1.10
2019-06-08T19:29:57.580Z,1.20
2019-06-08T19:33:00.365Z,1.12
2019-06-08T19:36:03.733Z,1.30
2019-06-08T19:39:07.536Z,1.37
2019-06-08T19:42:10.832Z,1.25
2019-06-08T19:45:14.141Z,1.02
2019-06-08T19:48:17.780Z,1.07
2019-06-08T19:51:21.249Z,1.12
2019-06-08T19:54:24.953Z,1.42
2019-06-08T19:57:28.375Z,1.40
2019-06-08T20:00:32.050Z,1.35
2019-06-08T20:03:37.488Z,1.35
2019-06-08T20:06:43.141Z,1.22
2019-06-08T20:09:49.673Z,1.62
2019-06-08T20:12:54.284Z,1.52
2019-06-08T20:16:01.501Z,1.92
2019-06-08T20:19:02.721Z,1.40
2019-06-08T20:22:07.513Z,1.70
2019-06-08T20:25:11.793Z,1.60
2019-06-08T20:28:17.199Z,1.52
2019-06-08T20:31:21.254Z,1.62
2019-06-08T20:34:24.441Z,1.50
2019-06-08T20:37:28.266Z,1.60
2019-06-08T20:40:31.745Z,1.72
2019-06-08T20:43:34.957Z,1.92
2019-06-08T20:46:38.355Z,1.72
2019-06-08T20:49:42.254Z,1.90
2019-06-08T20:52:46.570Z,1.82
2019-06-08T20:55:51.171Z,1.77
2019-06-08T20:58:57.438Z,1.80
2019-06-08T21:02:00.446Z,1.72
2019-06-08T21:05:04.448Z,1.80
2019-06-08T21:08:08.339Z,2.00
2019-06-08T21:11:11.861Z,2.62
2019-06-08T21:14:17.334Z,2.02
2019-06-08T21:17:20.357Z,2.15
2019-06-08T21:20:23.811Z,2.15
2019-06-08T21:23:28.101Z,2.02
2019-06-08T21:26:32.063Z,2.08
2019-06-08T21:29:47.609Z,2.20
2019-06-08T21:32:40.419Z,2.17
2019-06-08T21:35:44.683Z,2.80
2019-06-08T21:38:51.708Z,2.05
2019-06-08T21:41:54.983Z,2.17
2019-06-08T21:44:59.916Z,2.45
2019-06-08T21:48:03.000Z,2.25
2019-06-08T21:51:08.247Z,2.45
2019-06-08T21:54:11.133Z,1.98
2019-06-08T21:57:14.333Z,1.80
2019-06-08T22:00:35.715Z,2.20
2019-06-08T22:03:28.161Z,2.20
2019-06-08T22:06:32.898Z,2.30
2019-06-08T22:09:37.403Z,2.20
2019-06-08T22:12:40.655Z,2.05
2019-06-08T22:15:47.298Z,2.42
2019-06-08T22:18:51.476Z,2.10
2019-06-08T22:21:56.076Z,2.02
2019-06-08T22:25:01.147Z,2.20
2019-06-08T22:28:07.030Z,2.05
2019-06-08T22:31:10.002Z,2.47
2019-06-08T22:34:13.257Z,2.72
2019-06-08T22:37:17.364Z,3.10
2019-06-08T22:40:20.566Z,3.10
2019-06-08T22:43:23.864Z,4.90
2019-06-08T22:46:27.088Z,6.17
2019-06-08T22:49:30.261Z,3.95
2019-06-08T22:52:33.488Z,3.92
2019-06-08T22:55:38.165Z,4.30
2019-06-08T22:58:41.684Z,4.30
2019-06-08T23:01:47.138Z,4.45
2019-06-08T23:04:50.024Z,4.65
2019-06-08T23:07:54.733Z,4.20
2019-06-08T23:11:00.900Z,4.60
2019-06-08T23:14:05.392Z,4.62
2019-06-08T23:17:08.589Z,4.22
2019-06-08T23:20:12.144Z,4.05
2019-06-08T23:23:17.693Z,4.58
2019-06-08T23:26:20.423Z,5.33
2019-06-08T23:29:23.672Z,5.62
2019-06-08T23:32:27.638Z,5.70
2019-06-08T23:35:46.720Z,5.85
2019-06-08T23:38:37.398Z,6.17
2019-06-08T23:41:41.610Z,6.30
2019-06-08T23:44:47.047Z,6.75
2019-06-08T23:47:49.836Z,6.47
2019-06-08T23:50:53.000Z,6.10
2019-06-08T23:53:59.686Z,5.40
2019-06-08T23:57:02.753Z,5.72
